sensor_id;sensor_type;location;lat;lon;timestamp;P1;durP1;ratioP1;P2;durP2;ratioP2
20629;SDS011;17386;43.846;25.950;2023-05-07T00:01:05;9.40;;;4.03;;
20629;SDS011;17386;43.846;25.950;2023-05-07T00:03:31;9.93;;;4.18;;
20629;SDS011;17386;43.846;25.950;2023-05-07T00:05:57;6.78;;;3.65;;
20629;SDS011;17386;43.846;25.950;2023-05-07T00:08:22;7.85;;;4.32;;
20629;SDS011;17386;43.846;25.950;2023-05-07T00:10:48;7.82;;;4.60;;
20629;SDS011;17386;43.846;25.950;2023-05-07T00:13:13;8.30;;;4.65;;
20629;SDS011;17386;43.846;25.950;2023-05-07T00:15:39;10.95;;;3.95;;
20629;SDS011;17386;43.846;25.950;2023-05-07T00:18:04;7.40;;;4.28;;
20629;SDS011;17386;43.846;25.950;2023-05-07T00:20:30;7.53;;;4.13;;
20629;SDS011;17386;43.846;25.950;2023-05-07T00:22:55;8.45;;;4.30;;
20629;SDS011;17386;43.846;25.950;2023-05-07T00:25:21;8.02;;;4.03;;
20629;SDS011;17386;43.846;25.950;2023-05-07T00:27:46;6.63;;;4.05;;
20629;SDS011;17386;43.846;25.950;2023-05-07T00:30:11;8.35;;;4.40;;
20629;SDS011;17386;43.846;25.950;2023-05-07T00:32:37;10.90;;;4.38;;
20629;SDS011;17386;43.846;25.950;2023-05-07T00:35:03;7.60;;;4.72;;
20629;SDS011;17386;43.846;25.950;2023-05-07T00:37:29;9.05;;;4.55;;
20629;SDS011;17386;43.846;25.950;2023-05-07T00:39:55;13.02;;;4.72;;
20629;SDS011;17386;43.846;25.950;2023-05-07T00:42:20;12.52;;;4.68;;
20629;SDS011;17386;43.846;25.950;2023-05-07T00:44:46;8.55;;;4.82;;
20629;SDS011;17386;43.846;25.950;2023-05-07T00:47:11;8.13;;;4.28;;
20629;SDS011;17386;43.846;25.950;2023-05-07T00:49:38;9.50;;;4.93;;
20629;SDS011;17386;43.846;25.950;2023-05-07T00:52:06;10.93;;;5.57;;
20629;SDS011;17386;43.846;25.950;2023-05-07T00:54:34;10.63;;;4.88;;
20629;SDS011;17386;43.846;25.950;2023-05-07T00:57:00;8.45;;;5.30;;
20629;SDS011;17386;43.846;25.950;2023-05-07T00:59:27;8.40;;;4.68;;
20629;SDS011;17386;43.846;25.950;2023-05-07T01:01:53;9.57;;;4.30;;
20629;SDS011;17386;43.846;25.950;2023-05-07T01:04:18;12.35;;;5.03;;
20629;SDS011;17386;43.846;25.950;2023-05-07T01:06:44;9.23;;;4.85;;
20629;SDS011;17386;43.846;25.950;2023-05-07T01:09:11;8.77;;;5.22;;
20629;SDS011;17386;43.846;25.950;2023-05-07T01:11:38;7.43;;;4.75;;
20629;SDS011;17386;43.846;25.950;2023-05-07T01:14:05;9.95;;;4.85;;
20629;SDS011;17386;43.846;25.950;2023-05-07T01:16:31;11.50;;;4.95;;
20629;SDS011;17386;43.846;25.950;2023-05-07T01:18:56;9.77;;;4.97;;
20629;SDS011;17386;43.846;25.950;2023-05-07T01:21:25;10.10;;;4.72;;
20629;SDS011;17386;43.846;25.950;2023-05-07T01:23:51;9.93;;;4.63;;
20629;SDS011;17386;43.846;25.950;2023-05-07T01:26:18;10.02;;;4.90;;
20629;SDS011;17386;43.846;25.950;2023-05-07T01:28:44;9.82;;;4.25;;
20629;SDS011;17386;43.846;25.950;2023-05-07T01:31:10;10.60;;;4.82;;
20629;SDS011;17386;43.846;25.950;2023-05-07T01:33:38;7.35;;;4.20;;
20629;SDS011;17386;43.846;25.950;2023-05-07T01:36:06;8.70;;;4.38;;
20629;SDS011;17386;43.846;25.950;2023-05-07T01:38:33;9.82;;;4.45;;
20629;SDS011;17386;43.846;25.950;2023-05-07T01:41:01;8.52;;;4.57;;
20629;SDS011;17386;43.846;25.950;2023-05-07T01:43:27;8.25;;;4.68;;
20629;SDS011;17386;43.846;25.950;2023-05-07T01:45:54;8.07;;;4.18;;
20629;SDS011;17386;43.846;25.950;2023-05-07T01:48:20;6.55;;;3.97;;
20629;SDS011;17386;43.846;25.950;2023-05-07T01:50:46;7.55;;;4.60;;
20629;SDS011;17386;43.846;25.950;2023-05-07T01:53:11;8.77;;;4.30;;
20629;SDS011;17386;43.846;25.950;2023-05-07T01:55:37;8.57;;;4.22;;
20629;SDS011;17386;43.846;25.950;2023-05-07T01:58:02;8.48;;;4.07;;
20629;SDS011;17386;43.846;25.950;2023-05-07T02:00:28;7.72;;;4.00;;
20629;SDS011;17386;43.846;25.950;2023-05-07T02:02:54;7.57;;;4.05;;
20629;SDS011;17386;43.846;25.950;2023-05-07T02:05:20;9.57;;;4.50;;
20629;SDS011;17386;43.846;25.950;2023-05-07T02:07:45;6.18;;;3.67;;
20629;SDS011;17386;43.846;25.950;2023-05-07T02:10:10;9.00;;;4.03;;
20629;SDS011;17386;43.846;25.950;2023-05-07T02:12:36;7.88;;;4.13;;
20629;SDS011;17386;43.846;25.950;2023-05-07T02:15:01;7.45;;;4.47;;
20629;SDS011;17386;43.846;25.950;2023-05-07T02:17:27;8.68;;;4.25;;
20629;SDS011;17386;43.846;25.950;2023-05-07T02:19:52;7.68;;;4.25;;
20629;SDS011;17386;43.846;25.950;2023-05-07T02:22:18;11.95;;;4.03;;
20629;SDS011;17386;43.846;25.950;2023-05-07T02:24:43;9.18;;;4.55;;
20629;SDS011;17386;43.846;25.950;2023-05-07T02:27:09;10.70;;;4.93;;
20629;SDS011;17386;43.846;25.950;2023-05-07T02:29:35;8.10;;;4.72;;
20629;SDS011;17386;43.846;25.950;2023-05-07T02:32:00;8.57;;;4.90;;
20629;SDS011;17386;43.846;25.950;2023-05-07T02:34:26;11.13;;;4.78;;
20629;SDS011;17386;43.846;25.950;2023-05-07T02:36:51;9.60;;;5.15;;
20629;SDS011;17386;43.846;25.950;2023-05-07T02:39:17;11.80;;;5.25;;
20629;SDS011;17386;43.846;25.950;2023-05-07T02:41:42;9.45;;;5.28;;
20629;SDS011;17386;43.846;25.950;2023-05-07T02:44:07;10.20;;;5.35;;
20629;SDS011;17386;43.846;25.950;2023-05-07T02:46:34;11.30;;;5.40;;
20629;SDS011;17386;43.846;25.950;2023-05-07T02:48:59;9.75;;;5.50;;
20629;SDS011;17386;43.846;25.950;2023-05-07T02:51:25;9.95;;;4.93;;
20629;SDS011;17386;43.846;25.950;2023-05-07T02:53:51;11.18;;;5.40;;
20629;SDS011;17386;43.846;25.950;2023-05-07T02:56:16;9.07;;;4.90;;
20629;SDS011;17386;43.846;25.950;2023-05-07T02:58:41;12.15;;;5.25;;
20629;SDS011;17386;43.846;25.950;2023-05-07T03:01:07;10.05;;;5.20;;
20629;SDS011;17386;43.846;25.950;2023-05-07T03:03:33;7.07;;;4.70;;
20629;SDS011;17386;43.846;25.950;2023-05-07T03:05:59;9.32;;;4.55;;
20629;SDS011;17386;43.846;25.950;2023-05-07T03:08:24;9.50;;;4.80;;
20629;SDS011;17386;43.846;25.950;2023-05-07T03:10:50;8.55;;;4.70;;
20629;SDS011;17386;43.846;25.950;2023-05-07T03:13:15;13.55;;;5.28;;
20629;SDS011;17386;43.846;25.950;2023-05-07T03:15:41;15.27;;;5.40;;
20629;SDS011;17386;43.846;25.950;2023-05-07T03:18:06;9.52;;;4.13;;
20629;SDS011;17386;43.846;25.950;2023-05-07T03:20:32;8.05;;;4.32;;
20629;SDS011;17386;43.846;25.950;2023-05-07T03:22:57;8.43;;;4.68;;
20629;SDS011;17386;43.846;25.950;2023-05-07T03:25:23;8.15;;;4.57;;
20629;SDS011;17386;43.846;25.950;2023-05-07T03:27:48;8.52;;;4.55;;
20629;SDS011;17386;43.846;25.950;2023-05-07T03:30:14;7.03;;;3.85;;
20629;SDS011;17386;43.846;25.950;2023-05-07T03:32:40;9.30;;;4.53;;
20629;SDS011;17386;43.846;25.950;2023-05-07T03:35:05;10.32;;;4.35;;
20629;SDS011;17386;43.846;25.950;2023-05-07T03:37:31;7.85;;;3.85;;
20629;SDS011;17386;43.846;25.950;2023-05-07T03:39:56;9.50;;;4.13;;
20629;SDS011;17386;43.846;25.950;2023-05-07T03:42:22;11.13;;;4.45;;
20629;SDS011;17386;43.846;25.950;2023-05-07T03:44:48;9.35;;;4.45;;
20629;SDS011;17386;43.846;25.950;2023-05-07T03:47:14;10.85;;;4.50;;
20629;SDS011;17386;43.846;25.950;2023-05-07T03:49:39;13.50;;;6.30;;
20629;SDS011;17386;43.846;25.950;2023-05-07T03:52:05;8.68;;;3.97;;
20629;SDS011;17386;43.846;25.950;2023-05-07T03:54:31;7.60;;;4.43;;
20629;SDS011;17386;43.846;25.950;2023-05-07T03:56:57;9.02;;;4.03;;
20629;SDS011;17386;43.846;25.950;2023-05-07T03:59:22;9.43;;;4.05;;
20629;SDS011;17386;43.846;25.950;2023-05-07T04:01:47;8.70;;;4.60;;
20629;SDS011;17386;43.846;25.950;2023-05-07T04:04:14;10.88;;;3.75;;
20629;SDS011;17386;43.846;25.950;2023-05-07T04:06:39;9.35;;;4.03;;
20629;SDS011;17386;43.846;25.950;2023-05-07T04:09:05;10.88;;;3.78;;
20629;SDS011;17386;43.846;25.950;2023-05-07T04:11:31;5.90;;;3.42;;
20629;SDS011;17386;43.846;25.950;2023-05-07T04:13:57;7.78;;;3.65;;
20629;SDS011;17386;43.846;25.950;2023-05-07T04:16:22;8.75;;;3.65;;
20629;SDS011;17386;43.846;25.950;2023-05-07T04:18:47;4.80;;;3.20;;
20629;SDS011;17386;43.846;25.950;2023-05-07T04:21:13;11.02;;;3.83;;
20629;SDS011;17386;43.846;25.950;2023-05-07T04:23:48;6.68;;;3.65;;
20629;SDS011;17386;43.846;25.950;2023-05-07T04:26:14;6.95;;;3.47;;
20629;SDS011;17386;43.846;25.950;2023-05-07T04:28:40;8.20;;;3.67;;
20629;SDS011;17386;43.846;25.950;2023-05-07T04:31:06;7.22;;;3.47;;
20629;SDS011;17386;43.846;25.950;2023-05-07T04:33:32;8.15;;;3.35;;
20629;SDS011;17386;43.846;25.950;2023-05-07T04:35:58;7.75;;;3.30;;
20629;SDS011;17386;43.846;25.950;2023-05-07T04:38:27;6.40;;;3.80;;
20629;SDS011;17386;43.846;25.950;2023-05-07T04:40:56;8.50;;;3.88;;
20629;SDS011;17386;43.846;25.950;2023-05-07T04:43:22;8.25;;;3.75;;
20629;SDS011;17386;43.846;25.950;2023-05-07T04:45:49;9.15;;;4.07;;
20629;SDS011;17386;43.846;25.950;2023-05-07T04:48:15;6.32;;;3.92;;
20629;SDS011;17386;43.846;25.950;2023-05-07T04:50:41;9.00;;;3.83;;
20629;SDS011;17386;43.846;25.950;2023-05-07T04:53:06;7.25;;;4.05;;
20629;SDS011;17386;43.846;25.950;2023-05-07T04:55:31;7.85;;;3.90;;
20629;SDS011;17386;43.846;25.950;2023-05-07T04:57:57;7.47;;;4.13;;
20629;SDS011;17386;43.846;25.950;2023-05-07T05:00:22;6.28;;;4.00;;
20629;SDS011;17386;43.846;25.950;2023-05-07T05:02:48;8.32;;;4.03;;
20629;SDS011;17386;43.846;25.950;2023-05-07T05:05:14;7.50;;;3.95;;
20629;SDS011;17386;43.846;25.950;2023-05-07T05:07:40;7.38;;;4.15;;
20629;SDS011;17386;43.846;25.950;2023-05-07T05:10:05;7.28;;;3.88;;
20629;SDS011;17386;43.846;25.950;2023-05-07T05:12:31;6.43;;;3.60;;
20629;SDS011;17386;43.846;25.950;2023-05-07T05:14:56;8.95;;;4.05;;
20629;SDS011;17386;43.846;25.950;2023-05-07T05:17:22;6.72;;;3.47;;
20629;SDS011;17386;43.846;25.950;2023-05-07T05:19:47;11.23;;;4.03;;
20629;SDS011;17386;43.846;25.950;2023-05-07T05:22:13;13.18;;;4.15;;
20629;SDS011;17386;43.846;25.950;2023-05-07T05:24:38;11.68;;;5.72;;
20629;SDS011;17386;43.846;25.950;2023-05-07T05:27:03;12.57;;;5.68;;
20629;SDS011;17386;43.846;25.950;2023-05-07T05:29:30;9.85;;;4.80;;
20629;SDS011;17386;43.846;25.950;2023-05-07T05:31:56;9.20;;;4.93;;
20629;SDS011;17386;43.846;25.950;2023-05-07T05:34:22;10.15;;;4.93;;
20629;SDS011;17386;43.846;25.950;2023-05-07T05:36:47;8.80;;;4.82;;
20629;SDS011;17386;43.846;25.950;2023-05-07T05:39:13;12.40;;;4.82;;
20629;SDS011;17386;43.846;25.950;2023-05-07T05:41:39;14.90;;;5.40;;
20629;SDS011;17386;43.846;25.950;2023-05-07T05:44:04;12.68;;;5.53;;
20629;SDS011;17386;43.846;25.950;2023-05-07T05:46:29;15.57;;;5.00;;
20629;SDS011;17386;43.846;25.950;2023-05-07T05:48:55;15.10;;;5.10;;
20629;SDS011;17386;43.846;25.950;2023-05-07T05:51:20;13.75;;;4.80;;
20629;SDS011;17386;43.846;25.950;2023-05-07T05:53:46;15.60;;;4.05;;
20629;SDS011;17386;43.846;25.950;2023-05-07T05:56:12;14.35;;;4.15;;
20629;SDS011;17386;43.846;25.950;2023-05-07T05:58:37;7.53;;;3.75;;
20629;SDS011;17386;43.846;25.950;2023-05-07T06:01:02;10.63;;;4.03;;
20629;SDS011;17386;43.846;25.950;2023-05-07T06:03:28;9.93;;;3.92;;
20629;SDS011;17386;43.846;25.950;2023-05-07T06:05:54;7.93;;;3.72;;
20629;SDS011;17386;43.846;25.950;2023-05-07T06:08:19;8.57;;;4.38;;
20629;SDS011;17386;43.846;25.950;2023-05-07T06:10:45;10.30;;;5.25;;
20629;SDS011;17386;43.846;25.950;2023-05-07T06:13:10;12.25;;;5.63;;
20629;SDS011;17386;43.846;25.950;2023-05-07T06:15:36;8.77;;;3.65;;
20629;SDS011;17386;43.846;25.950;2023-05-07T06:18:01;4.25;;;2.55;;
20629;SDS011;17386;43.846;25.950;2023-05-07T06:20:26;8.50;;;3.05;;
20629;SDS011;17386;43.846;25.950;2023-05-07T06:22:52;7.30;;;2.95;;
20629;SDS011;17386;43.846;25.950;2023-05-07T06:25:19;7.57;;;3.33;;
20629;SDS011;17386;43.846;25.950;2023-05-07T06:27:45;8.27;;;3.53;;
20629;SDS011;17386;43.846;25.950;2023-05-07T06:30:10;5.45;;;3.13;;
20629;SDS011;17386;43.846;25.950;2023-05-07T06:32:36;8.10;;;3.40;;
20629;SDS011;17386;43.846;25.950;2023-05-07T06:35:01;9.57;;;3.38;;
20629;SDS011;17386;43.846;25.950;2023-05-07T06:37:27;8.52;;;3.30;;
20629;SDS011;17386;43.846;25.950;2023-05-07T06:39:52;10.07;;;4.03;;
20629;SDS011;17386;43.846;25.950;2023-05-07T06:42:18;6.85;;;3.00;;
20629;SDS011;17386;43.846;25.950;2023-05-07T06:44:43;6.68;;;2.70;;
20629;SDS011;17386;43.846;25.950;2023-05-07T06:47:08;7.97;;;3.00;;
20629;SDS011;17386;43.846;25.950;2023-05-07T06:49:34;5.47;;;2.75;;
20629;SDS011;17386;43.846;25.950;2023-05-07T06:51:59;12.60;;;3.17;;
20629;SDS011;17386;43.846;25.950;2023-05-07T06:54:25;5.97;;;2.20;;
20629;SDS011;17386;43.846;25.950;2023-05-07T06:56:50;5.97;;;2.08;;
20629;SDS011;17386;43.846;25.950;2023-05-07T06:59:16;8.65;;;3.10;;
20629;SDS011;17386;43.846;25.950;2023-05-07T07:01:41;9.63;;;2.65;;
20629;SDS011;17386;43.846;25.950;2023-05-07T07:04:07;4.70;;;2.00;;
20629;SDS011;17386;43.846;25.950;2023-05-07T07:06:32;12.23;;;6.55;;
20629;SDS011;17386;43.846;25.950;2023-05-07T07:08:58;15.75;;;4.30;;
20629;SDS011;17386;43.846;25.950;2023-05-07T07:11:24;6.38;;;2.30;;
20629;SDS011;17386;43.846;25.950;2023-05-07T07:13:50;9.07;;;2.30;;
20629;SDS011;17386;43.846;25.950;2023-05-07T07:16:15;4.47;;;2.60;;
20629;SDS011;17386;43.846;25.950;2023-05-07T07:18:41;4.28;;;2.35;;
20629;SDS011;17386;43.846;25.950;2023-05-07T07:21:06;2.85;;;1.92;;
20629;SDS011;17386;43.846;25.950;2023-05-07T07:23:32;4.30;;;2.33;;
20629;SDS011;17386;43.846;25.950;2023-05-07T07:25:58;6.57;;;2.58;;
20629;SDS011;17386;43.846;25.950;2023-05-07T07:28:25;5.32;;;2.22;;
20629;SDS011;17386;43.846;25.950;2023-05-07T07:30:51;6.22;;;1.83;;
20629;SDS011;17386;43.846;25.950;2023-05-07T07:33:16;4.57;;;2.28;;
20629;SDS011;17386;43.846;25.950;2023-05-07T07:35:42;4.70;;;2.10;;
20629;SDS011;17386;43.846;25.950;2023-05-07T07:38:07;7.22;;;2.33;;
20629;SDS011;17386;43.846;25.950;2023-05-07T07:40:36;5.82;;;2.47;;
20629;SDS011;17386;43.846;25.950;2023-05-07T07:43:01;4.55;;;2.05;;
20629;SDS011;17386;43.846;25.950;2023-05-07T07:45:27;6.57;;;2.35;;
20629;SDS011;17386;43.846;25.950;2023-05-07T07:47:52;5.53;;;2.50;;
20629;SDS011;17386;43.846;25.950;2023-05-07T07:50:18;4.28;;;2.30;;
20629;SDS011;17386;43.846;25.950;2023-05-07T07:52:43;5.82;;;2.10;;
20629;SDS011;17386;43.846;25.950;2023-05-07T07:55:09;9.48;;;2.70;;
20629;SDS011;17386;43.846;25.950;2023-05-07T07:57:35;5.88;;;2.40;;
20629;SDS011;17386;43.846;25.950;2023-05-07T08:00:00;7.45;;;2.50;;
20629;SDS011;17386;43.846;25.950;2023-05-07T08:02:26;8.82;;;2.30;;
20629;SDS011;17386;43.846;25.950;2023-05-07T08:04:51;9.55;;;2.80;;
20629;SDS011;17386;43.846;25.950;2023-05-07T08:07:17;6.07;;;2.40;;
20629;SDS011;17386;43.846;25.950;2023-05-07T08:09:45;4.35;;;2.20;;
20629;SDS011;17386;43.846;25.950;2023-05-07T08:12:11;4.70;;;2.10;;
20629;SDS011;17386;43.846;25.950;2023-05-07T08:14:36;5.07;;;1.75;;
20629;SDS011;17386;43.846;25.950;2023-05-07T08:17:02;5.45;;;2.28;;
20629;SDS011;17386;43.846;25.950;2023-05-07T08:19:27;10.88;;;2.60;;
20629;SDS011;17386;43.846;25.950;2023-05-07T08:21:53;8.73;;;2.45;;
20629;SDS011;17386;43.846;25.950;2023-05-07T08:24:18;5.25;;;2.47;;
20629;SDS011;17386;43.846;25.950;2023-05-07T08:26:44;6.82;;;2.55;;
20629;SDS011;17386;43.846;25.950;2023-05-07T08:29:10;4.82;;;1.90;;
20629;SDS011;17386;43.846;25.950;2023-05-07T08:31:36;4.03;;;1.88;;
20629;SDS011;17386;43.846;25.950;2023-05-07T08:34:01;4.90;;;2.03;;
20629;SDS011;17386;43.846;25.950;2023-05-07T08:36:28;3.05;;;1.73;;
20629;SDS011;17386;43.846;25.950;2023-05-07T08:38:53;10.00;;;2.55;;
20629;SDS011;17386;43.846;25.950;2023-05-07T08:41:19;6.55;;;2.10;;
20629;SDS011;17386;43.846;25.950;2023-05-07T08:43:47;5.38;;;2.10;;
20629;SDS011;17386;43.846;25.950;2023-05-07T08:46:17;7.07;;;2.20;;
20629;SDS011;17386;43.846;25.950;2023-05-07T08:48:45;4.07;;;1.80;;
20629;SDS011;17386;43.846;25.950;2023-05-07T08:51:16;6.07;;;2.20;;
20629;SDS011;17386;43.846;25.950;2023-05-07T08:53:43;2.88;;;1.77;;
20629;SDS011;17386;43.846;25.950;2023-05-07T08:56:09;4.18;;;2.00;;
20629;SDS011;17386;43.846;25.950;2023-05-07T08:58:35;5.97;;;2.10;;
20629;SDS011;17386;43.846;25.950;2023-05-07T09:01:02;3.90;;;2.10;;
20629;SDS011;17386;43.846;25.950;2023-05-07T09:03:32;4.35;;;1.65;;
20629;SDS011;17386;43.846;25.950;2023-05-07T09:05:57;5.18;;;1.90;;
20629;SDS011;17386;43.846;25.950;2023-05-07T09:08:26;3.38;;;1.63;;
20629;SDS011;17386;43.846;25.950;2023-05-07T09:10:52;4.70;;;1.60;;
20629;SDS011;17386;43.846;25.950;2023-05-07T09:13:18;3.63;;;1.90;;
20629;SDS011;17386;43.846;25.950;2023-05-07T09:15:44;6.70;;;2.28;;
20629;SDS011;17386;43.846;25.950;2023-05-07T09:18:09;5.03;;;2.08;;
20629;SDS011;17386;43.846;25.950;2023-05-07T09:20:38;6.40;;;2.33;;
20629;SDS011;17386;43.846;25.950;2023-05-07T09:23:06;5.68;;;2.63;;
20629;SDS011;17386;43.846;25.950;2023-05-07T09:25:32;6.60;;;1.95;;
20629;SDS011;17386;43.846;25.950;2023-05-07T09:28:02;6.93;;;2.03;;
20629;SDS011;17386;43.846;25.950;2023-05-07T09:30:30;5.78;;;2.25;;
20629;SDS011;17386;43.846;25.950;2023-05-07T09:33:00;3.55;;;2.03;;
20629;SDS011;17386;43.846;25.950;2023-05-07T09:35:27;5.82;;;2.22;;
20629;SDS011;17386;43.846;25.950;2023-05-07T09:37:53;4.63;;;1.90;;
20629;SDS011;17386;43.846;25.950;2023-05-07T09:40:21;6.57;;;2.60;;
20629;SDS011;17386;43.846;25.950;2023-05-07T09:42:56;4.15;;;2.38;;
20629;SDS011;17386;43.846;25.950;2023-05-07T09:45:33;7.78;;;2.08;;
20629;SDS011;17386;43.846;25.950;2023-05-07T09:47:58;4.07;;;1.75;;
20629;SDS011;17386;43.846;25.950;2023-05-07T09:50:27;4.00;;;1.77;;
20629;SDS011;17386;43.846;25.950;2023-05-07T09:52:55;4.60;;;2.05;;
20629;SDS011;17386;43.846;25.950;2023-05-07T09:55:22;4.80;;;2.22;;
20629;SDS011;17386;43.846;25.950;2023-05-07T09:57:50;4.13;;;1.88;;
20629;SDS011;17386;43.846;25.950;2023-05-07T10:00:18;3.75;;;1.73;;
20629;SDS011;17386;43.846;25.950;2023-05-07T10:02:45;2.85;;;1.70;;
20629;SDS011;17386;43.846;25.950;2023-05-07T10:05:14;4.20;;;1.52;;
20629;SDS011;17386;43.846;25.950;2023-05-07T10:07:40;3.03;;;1.60;;
20629;SDS011;17386;43.846;25.950;2023-05-07T10:10:06;4.13;;;1.60;;
20629;SDS011;17386;43.846;25.950;2023-05-07T10:12:32;3.83;;;1.45;;
20629;SDS011;17386;43.846;25.950;2023-05-07T10:15:04;9.63;;;1.90;;
20629;SDS011;17386;43.846;25.950;2023-05-07T10:17:31;5.80;;;1.92;;
20629;SDS011;17386;43.846;25.950;2023-05-07T10:19:57;6.22;;;1.98;;
20629;SDS011;17386;43.846;25.950;2023-05-07T10:22:23;6.35;;;2.00;;
20629;SDS011;17386;43.846;25.950;2023-05-07T10:24:52;2.13;;;1.52;;
20629;SDS011;17386;43.846;25.950;2023-05-07T10:27:19;6.03;;;1.90;;
20629;SDS011;17386;43.846;25.950;2023-05-07T10:34:58;5.43;;;1.80;;
20629;SDS011;17386;43.846;25.950;2023-05-07T10:37:27;6.07;;;2.03;;
20629;SDS011;17386;43.846;25.950;2023-05-07T10:39:54;23.27;;;12.82;;
20629;SDS011;17386;43.846;25.950;2023-05-07T10:42:19;4.55;;;2.30;;
20629;SDS011;17386;43.846;25.950;2023-05-07T10:44:45;6.32;;;2.78;;
20629;SDS011;17386;43.846;25.950;2023-05-07T10:47:11;5.70;;;2.30;;
20629;SDS011;17386;43.846;25.950;2023-05-07T10:52:16;3.45;;;1.80;;
20629;SDS011;17386;43.846;25.950;2023-05-07T10:54:43;4.90;;;1.80;;
20629;SDS011;17386;43.846;25.950;2023-05-07T10:59:58;2.70;;;1.80;;
20629;SDS011;17386;43.846;25.950;2023-05-07T11:02:39;5.65;;;2.05;;
20629;SDS011;17386;43.846;25.950;2023-05-07T11:05:25;4.65;;;1.80;;
20629;SDS011;17386;43.846;25.950;2023-05-07T11:10:47;4.97;;;1.90;;
20629;SDS011;17386;43.846;25.950;2023-05-07T11:13:13;8.95;;;2.38;;
20629;SDS011;17386;43.846;25.950;2023-05-07T11:18:08;3.40;;;1.65;;
20629;SDS011;17386;43.846;25.950;2023-05-07T11:20:44;3.35;;;1.83;;
20629;SDS011;17386;43.846;25.950;2023-05-07T11:26:00;3.35;;;1.67;;
20629;SDS011;17386;43.846;25.950;2023-05-07T11:28:36;7.13;;;2.10;;
20629;SDS011;17386;43.846;25.950;2023-05-07T11:31:03;4.43;;;1.70;;
20629;SDS011;17386;43.846;25.950;2023-05-07T11:33:29;4.18;;;2.10;;
20629;SDS011;17386;43.846;25.950;2023-05-07T11:35:55;6.25;;;1.80;;
20629;SDS011;17386;43.846;25.950;2023-05-07T11:38:21;3.72;;;1.92;;
20629;SDS011;17386;43.846;25.950;2023-05-07T11:40:51;5.15;;;1.70;;
20629;SDS011;17386;43.846;25.950;2023-05-07T11:43:17;4.95;;;2.28;;
20629;SDS011;17386;43.846;25.950;2023-05-07T11:45:43;9.15;;;4.00;;
20629;SDS011;17386;43.846;25.950;2023-05-07T11:48:09;7.45;;;2.00;;
20629;SDS011;17386;43.846;25.950;2023-05-07T11:50:35;5.95;;;1.88;;
20629;SDS011;17386;43.846;25.950;2023-05-07T11:53:07;5.75;;;1.67;;
20629;SDS011;17386;43.846;25.950;2023-05-07T11:55:32;4.43;;;2.03;;
20629;SDS011;17386;43.846;25.950;2023-05-07T11:57:58;5.78;;;1.92;;
20629;SDS011;17386;43.846;25.950;2023-05-07T12:00:23;4.65;;;2.30;;
20629;SDS011;17386;43.846;25.950;2023-05-07T12:02:49;5.90;;;2.33;;
20629;SDS011;17386;43.846;25.950;2023-05-07T12:05:14;6.20;;;2.00;;
20629;SDS011;17386;43.846;25.950;2023-05-07T12:07:40;5.72;;;2.22;;
20629;SDS011;17386;43.846;25.950;2023-05-07T12:10:06;4.50;;;2.10;;
20629;SDS011;17386;43.846;25.950;2023-05-07T12:12:37;3.60;;;1.65;;
20629;SDS011;17386;43.846;25.950;2023-05-07T12:15:07;3.90;;;1.73;;
20629;SDS011;17386;43.846;25.950;2023-05-07T12:17:33;6.78;;;1.90;;
20629;SDS011;17386;43.846;25.950;2023-05-07T12:19:58;5.40;;;1.80;;
20629;SDS011;17386;43.846;25.950;2023-05-07T12:22:24;3.33;;;1.85;;
20629;SDS011;17386;43.846;25.950;2023-05-07T12:24:56;6.57;;;2.20;;
20629;SDS011;17386;43.846;25.950;2023-05-07T12:27:22;4.72;;;1.85;;
20629;SDS011;17386;43.846;25.950;2023-05-07T12:29:49;5.18;;;2.28;;
20629;SDS011;17386;43.846;25.950;2023-05-07T12:32:19;6.45;;;2.00;;
20629;SDS011;17386;43.846;25.950;2023-05-07T12:34:46;4.97;;;1.85;;
20629;SDS011;17386;43.846;25.950;2023-05-07T12:37:14;5.28;;;2.00;;
20629;SDS011;17386;43.846;25.950;2023-05-07T12:40:22;5.15;;;2.38;;
20629;SDS011;17386;43.846;25.950;2023-05-07T12:42:32;6.18;;;2.20;;
20629;SDS011;17386;43.846;25.950;2023-05-07T12:47:53;4.47;;;1.70;;
20629;SDS011;17386;43.846;25.950;2023-05-07T12:50:18;3.88;;;2.05;;
20629;SDS011;17386;43.846;25.950;2023-05-07T12:52:46;3.40;;;1.92;;
20629;SDS011;17386;43.846;25.950;2023-05-07T12:55:15;5.22;;;1.98;;
20629;SDS011;17386;43.846;25.950;2023-05-07T12:57:42;7.05;;;1.80;;
20629;SDS011;17386;43.846;25.950;2023-05-07T13:00:13;4.53;;;2.08;;
20629;SDS011;17386;43.846;25.950;2023-05-07T13:02:39;5.20;;;1.80;;
20629;SDS011;17386;43.846;25.950;2023-05-07T13:05:06;5.68;;;2.00;;
20629;SDS011;17386;43.846;25.950;2023-05-07T13:07:32;3.83;;;1.90;;
20629;SDS011;17386;43.846;25.950;2023-05-07T13:09:57;4.20;;;1.80;;
20629;SDS011;17386;43.846;25.950;2023-05-07T13:12:23;3.33;;;1.90;;
20629;SDS011;17386;43.846;25.950;2023-05-07T13:14:48;6.28;;;2.13;;
20629;SDS011;17386;43.846;25.950;2023-05-07T13:17:13;2.92;;;1.88;;
20629;SDS011;17386;43.846;25.950;2023-05-07T13:19:39;5.97;;;1.95;;
20629;SDS011;17386;43.846;25.950;2023-05-07T13:22:04;5.30;;;2.00;;
20629;SDS011;17386;43.846;25.950;2023-05-07T13:24:30;6.80;;;2.17;;
20629;SDS011;17386;43.846;25.950;2023-05-07T13:26:55;3.90;;;1.70;;
20629;SDS011;17386;43.846;25.950;2023-05-07T13:29:21;6.00;;;2.25;;
20629;SDS011;17386;43.846;25.950;2023-05-07T13:31:53;5.18;;;2.35;;
20629;SDS011;17386;43.846;25.950;2023-05-07T13:34:22;5.13;;;1.90;;
20629;SDS011;17386;43.846;25.950;2023-05-07T13:36:47;4.93;;;2.05;;
20629;SDS011;17386;43.846;25.950;2023-05-07T13:39:13;6.25;;;2.80;;
20629;SDS011;17386;43.846;25.950;2023-05-07T13:41:38;5.53;;;2.10;;
20629;SDS011;17386;43.846;25.950;2023-05-07T13:44:08;6.03;;;1.90;;
20629;SDS011;17386;43.846;25.950;2023-05-07T13:46:33;2.72;;;1.80;;
20629;SDS011;17386;43.846;25.950;2023-05-07T13:48:59;5.25;;;2.05;;
20629;SDS011;17386;43.846;25.950;2023-05-07T13:51:24;4.40;;;2.53;;
20629;SDS011;17386;43.846;25.950;2023-05-07T13:53:50;5.80;;;2.40;;
20629;SDS011;17386;43.846;25.950;2023-05-07T13:56:17;4.10;;;2.03;;
20629;SDS011;17386;43.846;25.950;2023-05-07T13:58:42;4.80;;;2.03;;
20629;SDS011;17386;43.846;25.950;2023-05-07T14:01:08;5.45;;;2.00;;
20629;SDS011;17386;43.846;25.950;2023-05-07T14:03:33;5.20;;;2.28;;
20629;SDS011;17386;43.846;25.950;2023-05-07T14:06:00;5.95;;;2.20;;
20629;SDS011;17386;43.846;25.950;2023-05-07T14:08:26;5.78;;;2.30;;
20629;SDS011;17386;43.846;25.950;2023-05-07T14:10:52;5.93;;;2.00;;
20629;SDS011;17386;43.846;25.950;2023-05-07T14:13:18;4.88;;;2.15;;
20629;SDS011;17386;43.846;25.950;2023-05-07T14:15:43;5.07;;;2.08;;
20629;SDS011;17386;43.846;25.950;2023-05-07T14:18:11;4.53;;;1.88;;
20629;SDS011;17386;43.846;25.950;2023-05-07T14:20:38;4.57;;;2.10;;
20629;SDS011;17386;43.846;25.950;2023-05-07T14:23:03;5.53;;;2.35;;
20629;SDS011;17386;43.846;25.950;2023-05-07T14:25:28;5.43;;;2.10;;
20629;SDS011;17386;43.846;25.950;2023-05-07T14:27:54;7.20;;;2.70;;
20629;SDS011;17386;43.846;25.950;2023-05-07T14:30:19;3.80;;;2.40;;
20629;SDS011;17386;43.846;25.950;2023-05-07T14:32:45;6.68;;;1.90;;
20629;SDS011;17386;43.846;25.950;2023-05-07T14:35:10;5.13;;;2.00;;
20629;SDS011;17386;43.846;25.950;2023-05-07T14:37:35;5.55;;;2.40;;
20629;SDS011;17386;43.846;25.950;2023-05-07T14:40:01;5.88;;;2.40;;
20629;SDS011;17386;43.846;25.950;2023-05-07T14:42:27;5.18;;;2.15;;
20629;SDS011;17386;43.846;25.950;2023-05-07T14:44:52;4.65;;;1.77;;
20629;SDS011;17386;43.846;25.950;2023-05-07T14:47:18;5.47;;;2.00;;
20629;SDS011;17386;43.846;25.950;2023-05-07T14:49:43;5.18;;;2.25;;